createdAt,value
2022-11-28T00:02:32.866Z,99237.13
2022-11-28T00:05:20.219Z,99223.47
2022-11-28T00:08:07.107Z,99214.09
2022-11-28T00:10:54.174Z,99216.53
2022-11-28T00:13:43.468Z,99201.25
2022-11-28T00:16:30.832Z,99207.97
2022-11-28T00:19:17.840Z,99200.34
2022-11-28T00:22:05.199Z,99199.44
2022-11-28T00:24:52.642Z,99189.22
2022-11-28T00:27:39.880Z,99183.22
2022-11-28T00:30:28.688Z,99187.41
2022-11-28T00:33:16.034Z,99179.59
2022-11-28T00:36:05.974Z,99185.47
2022-11-28T00:38:53.429Z,99187.13
2022-11-28T00:41:40.410Z,99191.28
2022-11-28T00:44:27.535Z,99187.03
2022-11-28T00:47:16.275Z,99175.09
2022-11-28T00:50:03.384Z,99181.94
2022-11-28T00:52:50.436Z,99181.03
2022-11-28T00:55:40.099Z,99184.38
2022-11-28T00:58:27.252Z,99173.38
2022-11-28T01:01:17.794Z,99172.44
2022-11-28T01:04:11.703Z,99171.72
2022-11-28T01:06:58.811Z,99169.19
2022-11-28T01:09:46.169Z,99173.44
2022-11-28T01:12:33.206Z,99180.28
2022-11-28T01:15:20.286Z,99176.84
2022-11-28T01:18:07.426Z,99180.19
2022-11-28T01:20:56.150Z,99175.09
2022-11-28T01:23:43.529Z,99183.56
2022-11-28T01:26:32.201Z,99182.63
2022-11-28T01:29:19.398Z,99176.72
2022-11-28T01:32:06.683Z,99174.97
2022-11-28T01:34:54.124Z,99174.97
2022-11-28T01:37:42.547Z,99165.63
2022-11-28T01:40:29.945Z,99170.72
2022-11-28T01:43:17.028Z,99169.09
2022-11-28T01:46:05.403Z,99168.28
2022-11-28T01:48:53.095Z,99160.69
2022-11-28T01:51:43.723Z,99166.63
2022-11-28T01:54:34.988Z,99156.44
2022-11-28T01:57:25.566Z,99136.03
2022-11-28T02:00:16.887Z,99136.84
2022-11-28T02:03:10.366Z,99127.50
2022-11-28T02:05:58.420Z,99130.09
2022-11-28T02:08:45.654Z,99125.84
2022-11-28T02:12:08.179Z,99124.22
2022-11-28T02:15:13.450Z,99108.91
2022-11-28T02:18:28.047Z,99102.16
2022-11-28T02:21:37.312Z,99097.19
2022-11-28T02:24:57.980Z,99111.66
2022-11-28T02:28:39.146Z,99105.84
2022-11-28T02:31:52.180Z,99110.13
2022-11-28T02:34:48.233Z,99098.28
2022-11-28T02:37:45.620Z,99114.41
2022-11-28T02:40:40.154Z,99108.47
2022-11-28T02:43:36.170Z,99116.03
2022-11-28T02:46:31.030Z,99108.38
2022-11-28T02:49:24.016Z,99102.56
2022-11-28T02:52:16.065Z,99099.13
2022-11-28T02:55:04.883Z,99099.19
2022-11-28T02:57:54.985Z,99101.75
2022-11-28T03:00:44.873Z,99090.75
2022-11-28T03:04:02.063Z,99083.09
2022-11-28T03:07:02.677Z,99081.34
2022-11-28T03:10:13.073Z,99084.00
2022-11-28T03:13:17.235Z,99078.19
2022-11-28T03:16:18.916Z,99070.56
2022-11-28T03:19:15.473Z,99072.25
2022-11-28T03:22:12.942Z,99074.00
2022-11-28T03:25:11.456Z,99069.81
2022-11-28T03:28:08.358Z,99073.28
2022-11-28T03:31:01.987Z,99069.13
2022-11-28T03:33:54.920Z,99071.56
2022-11-28T03:36:47.616Z,99069.13
2022-11-28T03:39:41.235Z,99060.63
2022-11-28T03:42:33.547Z,99066.66
2022-11-28T03:45:24.104Z,99065.84
2022-11-28T03:48:16.931Z,99059.09
2022-11-28T03:51:10.122Z,99065.13
2022-11-28T03:54:04.893Z,99056.66
2022-11-28T03:57:01.559Z,99064.41
2022-11-28T03:59:51.345Z,99055.94
2022-11-28T04:02:47.201Z,99051.66
2022-11-28T04:05:41.585Z,99055.03
2022-11-28T04:08:33.776Z,99061.84
2022-11-28T04:11:26.778Z,99066.94
2022-11-28T04:14:21.565Z,99055.09
2022-11-28T04:17:17.780Z,99059.31
2022-11-28T04:20:12.964Z,99050.84
2022-11-28T04:23:07.928Z,99055.94
2022-11-28T04:26:00.136Z,99045.84
2022-11-28T04:28:49.831Z,99046.75
2022-11-28T04:31:40.816Z,99044.22
2022-11-28T04:34:29.881Z,99045.13
2022-11-28T04:37:18.582Z,99039.22
2022-11-28T04:40:09.491Z,99043.41
2022-11-28T04:43:01.272Z,99040.13
2022-11-28T04:45:54.340Z,99047.78
2022-11-28T04:48:43.610Z,99063.16
2022-11-28T04:51:42.431Z,99057.16
2022-11-28T04:54:37.521Z,99060.59
2022-11-28T04:57:30.455Z,99062.25
2022-11-28T05:00:20.109Z,99061.41
2022-11-28T05:03:08.043Z,99058.97
2022-11-28T05:05:56.775Z,99057.16
2022-11-28T05:08:44.067Z,99054.59
2022-11-28T05:11:32.043Z,99056.31
2022-11-28T05:14:19.159Z,99052.06
2022-11-28T05:17:06.467Z,99049.50
2022-11-28T05:19:53.614Z,99049.50
2022-11-28T05:22:41.891Z,99044.41
2022-11-28T05:25:29.210Z,99047.88
2022-11-28T05:28:16.310Z,99036.03
2022-11-28T05:31:04.997Z,99041.13
2022-11-28T05:33:52.412Z,99039.50
2022-11-28T05:36:39.740Z,99046.22
2022-11-28T05:39:28.281Z,99033.59
2022-11-28T05:42:15.647Z,99046.22
2022-11-28T05:45:03.221Z,99041.34
2022-11-28T05:47:50.494Z,99027.69
2022-11-28T05:50:40.626Z,99034.50
2022-11-28T05:53:27.902Z,99036.25
2022-11-28T05:56:19.524Z,99042.25
2022-11-28T05:59:06.567Z,99038.06
2022-11-28T06:01:53.939Z,99036.44
2022-11-28T06:04:41.993Z,99037.34
2022-11-28T06:07:29.529Z,99029.72
2022-11-28T06:10:16.646Z,99020.44
2022-11-28T06:13:05.441Z,99029.81
2022-11-28T06:15:52.935Z,99023.88
2022-11-28T06:18:41.043Z,99020.53
2022-11-28T06:21:29.606Z,99024.81
2022-11-28T06:24:16.663Z,99024.81
2022-11-28T06:27:03.879Z,99019.91
2022-11-28T06:29:52.236Z,99020.72
2022-11-28T06:32:39.550Z,99019.91
2022-11-28T06:35:26.805Z,99023.44
2022-11-28T06:38:14.551Z,99028.63
2022-11-28T06:41:03.995Z,99042.28
2022-11-28T06:43:51.394Z,99027.94
2022-11-28T06:46:40.363Z,99035.56
2022-11-28T06:49:27.367Z,99035.69
2022-11-28T06:52:14.702Z,99029.75
2022-11-28T06:55:01.735Z,99034.84
2022-11-28T06:57:48.774Z,99044.22
2022-11-28T07:00:36.652Z,99049.31
2022-11-28T07:03:25.395Z,99054.41
2022-11-28T07:05:53.965Z,99051.03
2022-11-28T07:08:22.661Z,99046.78
2022-11-28T07:10:51.275Z,99050.97
2022-11-28T07:13:19.898Z,99048.41
2022-11-28T07:15:50.423Z,99051.75
2022-11-28T07:18:19.231Z,99047.56
2022-11-28T07:20:49.200Z,99051.88
2022-11-28T07:23:17.817Z,99058.59
2022-11-28T07:25:46.418Z,99068.84
2022-11-28T07:28:16.198Z,99072.34
2022-11-28T07:30:47.133Z,99068.84
2022-11-28T07:33:15.827Z,99069.78
2022-11-28T07:35:44.491Z,99074.88
2022-11-28T07:38:14.487Z,99068.06
2022-11-28T07:40:43.122Z,99068.84
2022-11-28T07:43:11.695Z,99071.41
2022-11-28T07:45:59.507Z,99059.50
2022-11-28T07:48:29.348Z,99057.88
2022-11-28T07:51:01.465Z,99061.16
2022-11-28T07:53:31.441Z,99055.94
2022-11-28T07:56:04.501Z,99057.75
2022-11-28T07:58:33.746Z,99058.59
2022-11-28T08:01:09.696Z,99061.06
2022-11-28T08:03:38.413Z,99057.75
2022-11-28T08:06:08.359Z,99053.56
2022-11-28T08:08:38.827Z,99046.78
2022-11-28T08:11:09.751Z,99046.78
2022-11-28T08:13:39.335Z,99055.22
2022-11-28T08:16:10.994Z,99058.66
2022-11-28T08:18:39.991Z,99058.66
2022-11-28T08:21:11.406Z,99065.41
2022-11-28T08:23:42.311Z,99059.50
2022-11-28T08:26:13.455Z,99060.31
2022-11-28T08:28:42.749Z,99059.41
2022-11-28T08:31:12.820Z,99059.41
2022-11-28T08:33:42.306Z,99055.94
2022-11-28T08:36:13.612Z,99055.84
2022-11-28T08:39:02.893Z,99056.75
2022-11-28T08:41:34.968Z,99047.38
2022-11-28T08:44:03.545Z,99056.66
2022-11-28T08:46:32.703Z,99057.50
2022-11-28T08:49:04.610Z,99050.66
2022-11-28T08:51:33.602Z,99055.75
2022-11-28T08:54:03.630Z,99056.47
2022-11-28T08:56:32.287Z,99055.56
2022-11-28T08:59:01.766Z,99059.75
2022-11-28T09:01:30.895Z,99057.19
2022-11-28T09:03:59.668Z,99060.56
2022-11-28T09:06:28.742Z,99058.84
2022-11-28T09:08:57.356Z,99063.03
2022-11-28T09:11:27.347Z,99061.28
2022-11-28T09:13:56.933Z,99053.53
2022-11-28T09:16:25.616Z,99058.63
2022-11-28T09:18:57.482Z,99054.34
2022-11-28T09:21:27.020Z,99060.19
2022-11-28T09:23:57.303Z,99053.25
2022-11-28T09:26:27.758Z,99051.53
2022-11-28T09:28:56.960Z,99059.97
2022-11-28T09:31:25.937Z,99064.06
2022-11-28T09:33:55.603Z,99055.50
2022-11-28T09:36:25.843Z,99054.59
2022-11-28T09:38:54.420Z,99062.97
2022-11-28T09:41:45.735Z,99070.50
2022-11-28T09:44:21.541Z,99056.94
2022-11-28T09:46:54.172Z,99059.41
2022-11-28T09:49:44.678Z,99057.66
2022-11-28T09:52:30.193Z,99054.19
2022-11-28T09:55:14.315Z,99042.19
2022-11-28T09:57:49.356Z,99051.44
2022-11-28T10:00:22.626Z,99054.72
2022-11-28T10:03:26.738Z,99053.81
2022-11-28T10:06:08.148Z,99051.19
2022-11-28T10:08:48.087Z,99051.97
2022-11-28T10:11:38.190Z,99045.06
2022-11-28T10:14:37.948Z,99045.06
2022-11-28T10:17:21.280Z,99042.53
2022-11-28T10:19:56.040Z,99047.41
2022-11-28T10:22:33.353Z,99040.56
2022-11-28T10:25:11.368Z,99032.84
2022-11-28T10:27:42.394Z,99037.84
2022-11-28T10:30:23.123Z,99040.19
2022-11-28T10:33:00.599Z,99046.94
2022-11-28T10:35:41.509Z,99037.53
2022-11-28T10:38:14.168Z,99036.63
2022-11-28T10:40:49.812Z,99036.53
2022-11-28T10:43:33.706Z,99040.72
2022-11-28T10:46:26.557Z,99043.16
2022-11-28T10:49:04.625Z,99043.09
2022-11-28T10:51:42.424Z,99039.63
2022-11-28T10:54:26.603Z,99035.34
2022-11-28T10:57:04.830Z,99043.72
2022-11-28T10:59:48.274Z,99040.22
2022-11-28T11:02:29.920Z,99040.97
2022-11-28T11:04:58.753Z,99036.66
2022-11-28T11:07:31.177Z,99032.28
2022-11-28T11:10:14.530Z,99037.28
2022-11-28T11:12:44.134Z,99037.28
2022-11-28T11:15:26.715Z,99032.09
2022-11-28T11:17:57.069Z,99026.88
2022-11-28T11:20:39.691Z,99017.41
2022-11-28T11:23:18.148Z,99013.97
2022-11-28T11:25:52.715Z,99012.22
2022-11-28T11:28:41.904Z,99015.56
2022-11-28T11:31:21.821Z,99013.75
2022-11-28T11:33:54.536Z,99018.84
2022-11-28T11:36:33.511Z,99019.53
2022-11-28T11:39:20.320Z,99019.53
2022-11-28T11:41:51.123Z,99013.53
2022-11-28T11:44:37.916Z,99012.63
2022-11-28T11:47:09.271Z,99009.16
2022-11-28T11:49:41.466Z,99009.06
2022-11-28T11:52:23.471Z,99006.41
2022-11-28T11:55:04.783Z,99003.75
2022-11-28T11:57:38.755Z,99003.75
2022-11-28T12:00:16.151Z,99007.00
2022-11-28T12:02:48.279Z,98998.53
2022-11-28T12:05:21.467Z,98992.41
2022-11-28T12:07:57.909Z,98999.16
2022-11-28T12:10:31.296Z,98993.94
2022-11-28T12:13:00.304Z,98983.75
2022-11-28T12:15:44.308Z,98981.91
2022-11-28T12:18:26.453Z,98986.09
2022-11-28T12:21:14.568Z,98992.03
2022-11-28T12:24:08.999Z,99000.47
2022-11-28T12:26:46.648Z,98994.47
2022-11-28T12:29:39.487Z,98993.53
2022-11-28T12:32:29.499Z,98991.81
2022-11-28T12:35:14.882Z,98991.69
2022-11-28T12:38:15.295Z,98990.78
2022-11-28T12:41:03.136Z,98993.34
2022-11-28T12:43:52.492Z,98994.16
2022-11-28T12:46:29.871Z,98988.94
2022-11-28T12:49:17.627Z,98977.00
2022-11-28T12:52:02.123Z,98981.28
2022-11-28T12:54:52.215Z,98976.00
2022-11-28T12:57:29.735Z,98982.69
2022-11-28T13:00:08.761Z,98977.59
2022-11-28T13:02:52.130Z,98985.16
2022-11-28T13:05:36.952Z,98977.50
2022-11-28T13:08:34.954Z,98973.22
2022-11-28T13:11:18.766Z,98971.47
2022-11-28T13:13:52.688Z,98968.03
2022-11-28T13:16:29.031Z,98978.22
2022-11-28T13:19:05.210Z,98975.56
2022-11-28T13:21:43.131Z,98971.25
2022-11-28T13:24:27.029Z,98968.72
2022-11-28T13:27:08.206Z,98961.06
2022-11-28T13:29:45.219Z,98963.53
2022-11-28T13:32:23.715Z,98963.41
2022-11-28T13:34:53.167Z,98964.22
2022-11-28T13:40:27.822Z,98963.31
2022-11-28T13:43:08.489Z,98966.66
2022-11-28T13:45:41.663Z,98959.84
2022-11-28T13:49:20.652Z,98962.41
2022-11-28T13:51:49.914Z,98963.31
2022-11-28T13:54:46.377Z,98970.06
2022-11-28T13:57:25.357Z,98959.84
2022-11-28T14:00:04.082Z,98956.34
2022-11-28T14:02:46.511Z,98952.19
2022-11-28T14:05:31.987Z,98955.44
2022-11-28T14:08:00.966Z,98952.88
2022-11-28T14:10:51.097Z,98954.53
2022-11-28T14:13:52.377Z,98947.78
2022-11-28T14:16:40.031Z,98945.22
2022-11-28T14:19:25.324Z,98943.50
2022-11-28T14:22:13.935Z,98951.06
2022-11-28T14:25:02.537Z,98951.06
2022-11-28T14:27:35.011Z,98958.72
2022-11-28T14:30:04.268Z,98960.31
2022-11-28T14:32:39.542Z,98954.41
2022-11-28T14:35:18.891Z,98960.31
2022-11-28T14:37:54.291Z,98965.44
2022-11-28T14:41:03.476Z,98959.63
2022-11-28T14:43:34.773Z,98967.28
2022-11-28T14:46:32.261Z,98960.44
2022-11-28T14:49:23.017Z,98959.63
2022-11-28T14:52:41.618Z,98964.72
2022-11-28T14:55:22.582Z,98964.84
2022-11-28T14:57:59.937Z,98978.50
2022-11-28T15:00:33.194Z,98976.75
2022-11-28T15:03:22.555Z,98970.06
2022-11-28T15:05:53.946Z,98971.78
2022-11-28T15:08:51.428Z,98972.69
2022-11-28T15:11:58.499Z,98972.78
2022-11-28T15:14:31.692Z,98972.09
2022-11-28T15:17:06.719Z,98973.72
2022-11-28T15:19:40.548Z,98972.91
2022-11-28T15:22:31.783Z,98977.31
2022-11-28T15:25:01.151Z,98979.88
2022-11-28T15:27:30.539Z,98980.78
2022-11-28T15:30:02.144Z,98983.31
2022-11-28T15:32:33.076Z,98981.69
2022-11-28T15:35:12.359Z,98985.97
2022-11-28T15:37:50.707Z,98983.44
2022-11-28T15:40:23.575Z,98989.44
2022-11-28T15:42:52.664Z,98987.81
2022-11-28T15:45:26.963Z,98992.00
2022-11-28T15:47:58.475Z,98999.66
2022-11-28T15:50:29.530Z,98999.66
2022-11-28T15:53:01.875Z,98999.66
2022-11-28T15:55:36.931Z,99006.41
2022-11-28T15:58:14.197Z,98997.91
2022-11-28T16:00:47.248Z,98997.91
2022-11-28T16:03:19.848Z,99001.28
2022-11-28T16:05:50.329Z,99005.56
2022-11-28T16:08:31.775Z,98995.28
2022-11-28T16:11:03.880Z,98994.44
2022-11-28T16:13:33.957Z,98988.44
2022-11-28T16:16:04.331Z,99002.94
2022-11-28T16:18:33.467Z,99004.53
2022-11-28T16:21:04.121Z,99003.72
2022-11-28T16:23:37.902Z,99015.59
2022-11-28T16:26:09.383Z,99005.38
2022-11-28T16:28:40.849Z,99004.53
2022-11-28T16:31:13.162Z,99007.94
2022-11-28T16:33:43.959Z,99010.47
2022-11-28T16:36:21.230Z,99010.47
2022-11-28T16:38:54.733Z,99011.28
2022-11-28T16:41:25.813Z,99009.63
2022-11-28T16:43:57.102Z,99016.38
2022-11-28T16:46:33.050Z,99010.47
2022-11-28T16:49:02.899Z,99016.38
2022-11-28T16:51:37.840Z,99018.81
2022-11-28T16:54:32.701Z,99017.19
2022-11-28T16:57:15.737Z,99018.13
2022-11-28T16:59:45.696Z,99013.13
2022-11-28T17:02:17.721Z,99013.94
2022-11-28T17:04:47.495Z,99014.75
2022-11-28T17:07:19.373Z,99014.03
2022-11-28T17:09:50.896Z,99014.03
2022-11-28T17:12:27.475Z,99014.84
2022-11-28T17:14:58.434Z,99017.41
2022-11-28T17:17:28.368Z,99024.25
2022-11-28T17:19:57.085Z,99021.69
2022-11-28T17:22:28.690Z,99015.75
2022-11-28T17:25:02.477Z,99025.16
2022-11-28T17:27:31.200Z,99014.97
2022-11-28T17:29:59.971Z,99022.63
2022-11-28T17:32:28.572Z,99019.25
2022-11-28T17:34:57.184Z,99014.97
2022-11-28T17:37:26.138Z,99020.06
2022-11-28T17:40:12.475Z,99018.41
2022-11-28T17:42:42.548Z,99020.28
2022-11-28T17:45:15.681Z,99021.91
2022-11-28T17:47:45.059Z,99021.91
2022-11-28T17:50:13.698Z,99022.81
2022-11-28T17:52:42.799Z,99017.91
2022-11-28T17:55:11.747Z,99017.00
2022-11-28T17:57:41.732Z,99016.19
2022-11-28T18:00:12.644Z,99012.81
2022-11-28T18:02:45.964Z,99008.66
2022-11-28T18:05:14.860Z,99013.75
2022-11-28T18:07:43.622Z,99017.22
2022-11-28T18:10:13.754Z,99020.66
2022-11-28T18:12:43.896Z,99015.56
2022-11-28T18:15:12.772Z,99016.47
2022-11-28T18:17:41.466Z,99018.22
2022-11-28T18:20:11.623Z,99012.31
2022-11-28T18:22:40.286Z,99010.69
2022-11-28T18:25:11.119Z,99012.44
2022-11-28T18:27:40.196Z,99015.78
2022-11-28T18:30:13.548Z,99023.44
2022-11-28T18:32:42.267Z,99031.09
2022-11-28T18:35:11.399Z,99020.09
2022-11-28T18:37:40.631Z,99020.88
2022-11-28T18:40:10.495Z,99026.00
2022-11-28T18:42:39.353Z,99020.88
2022-11-28T18:45:11.687Z,99027.72
2022-11-28T18:47:40.468Z,99020.09
2022-11-28T18:50:10.408Z,99020.88
2022-11-28T18:52:39.111Z,99028.53
2022-11-28T18:55:09.187Z,99030.28
2022-11-28T18:57:41.476Z,99026.78
2022-11-28T19:00:13.626Z,99027.63
2022-11-28T19:02:42.320Z,99030.19
2022-11-28T19:05:11.143Z,99039.44
2022-11-28T19:07:39.852Z,99030.19
2022-11-28T19:10:10.721Z,99030.97
2022-11-28T19:12:40.466Z,99029.25
2022-11-28T19:15:11.966Z,99024.97
2022-11-28T19:17:40.704Z,99021.59
2022-11-28T19:20:11.115Z,99030.88
2022-11-28T19:22:39.736Z,99026.59
2022-11-28T19:25:09.890Z,99026.59
2022-11-28T19:27:38.879Z,99027.41
2022-11-28T19:30:09.255Z,99027.41
2022-11-28T19:32:39.391Z,99022.41
2022-11-28T19:35:09.452Z,99019.88
2022-11-28T19:37:38.375Z,99017.31
2022-11-28T19:40:09.177Z,99020.78
2022-11-28T19:42:38.049Z,99024.13
2022-11-28T19:45:09.011Z,99017.44
2022-11-28T19:47:39.015Z,99027.63
2022-11-28T19:50:09.934Z,99030.19
2022-11-28T19:52:38.979Z,99036.19
2022-11-28T19:55:09.013Z,99030.28
2022-11-28T19:57:38.761Z,99036.19
2022-11-28T20:00:09.627Z,99036.19
2022-11-28T20:02:43.884Z,99036.28
2022-11-28T20:05:12.591Z,99037.94
2022-11-28T20:07:41.343Z,99032.84
2022-11-28T20:10:11.069Z,99040.50
2022-11-28T20:12:39.723Z,99043.84
2022-11-28T20:15:15.184Z,99044.75
2022-11-28T20:17:48.106Z,99042.19
2022-11-28T20:20:16.996Z,99034.56
2022-11-28T20:22:45.807Z,99038.75
2022-11-28T20:25:20.492Z,99045.59
2022-11-28T20:27:51.438Z,99040.50
2022-11-28T20:30:20.360Z,99045.59
2022-11-28T20:32:52.308Z,99046.41
2022-11-28T20:35:23.307Z,99060.91
2022-11-28T20:37:51.991Z,99054.03
2022-11-28T20:40:20.626Z,99059.16
2022-11-28T20:42:49.251Z,99061.69
2022-11-28T20:45:18.119Z,99067.59
2022-11-28T20:47:49.779Z,99066.00
2022-11-28T20:50:20.325Z,99061.69
2022-11-28T20:52:48.943Z,99059.16
2022-11-28T20:55:17.662Z,99073.53
2022-11-28T20:57:46.367Z,99073.53
2022-11-28T21:00:16.438Z,99071.00
2022-11-28T21:02:46.893Z,99075.16
2022-11-28T21:05:38.129Z,99073.53
2022-11-28T21:08:25.472Z,99072.72
2022-11-28T21:11:30.900Z,99073.53
2022-11-28T21:14:22.579Z,99071.91
2022-11-28T21:17:09.750Z,99069.34
2022-11-28T21:19:56.788Z,99073.53
2022-11-28T21:22:45.322Z,99074.44
2022-11-28T21:25:32.870Z,99075.16
2022-11-28T21:28:20.522Z,99070.16
2022-11-28T21:31:09.411Z,99072.59
2022-11-28T21:33:58.719Z,99076.78
2022-11-28T21:36:46.224Z,99074.34
2022-11-28T21:39:35.051Z,99076.91
2022-11-28T21:42:26.178Z,99075.16
2022-11-28T21:45:13.344Z,99071.78
2022-11-28T21:48:00.907Z,99074.34
2022-11-28T21:50:48.868Z,99073.53
2022-11-28T21:53:36.619Z,99067.50
2022-11-28T21:56:25.082Z,99068.34
2022-11-28T21:59:13.299Z,99071.69
2022-11-28T22:02:00.701Z,99074.25
2022-11-28T22:04:47.875Z,99074.25
2022-11-28T22:07:37.393Z,99072.59
2022-11-28T22:10:24.755Z,99076.78
2022-11-28T22:13:13.547Z,99072.59
2022-11-28T22:16:01.065Z,99074.34
2022-11-28T22:18:49.719Z,99081.19
2022-11-28T22:21:56.385Z,99078.66
2022-11-28T22:24:44.360Z,99079.56
2022-11-28T22:27:33.138Z,99080.25
2022-11-28T22:30:22.001Z,99082.91
2022-11-28T22:33:09.134Z,99078.66
2022-11-28T22:36:04.201Z,99079.44
2022-11-28T22:38:56.661Z,99081.19
2022-11-28T22:41:44.745Z,99080.47
2022-11-28T22:44:32.875Z,99083.94
2022-11-28T22:47:21.512Z,99088.13
2022-11-28T22:50:09.963Z,99088.13
2022-11-28T22:52:57.603Z,99090.78
2022-11-28T22:55:44.689Z,99083.13
2022-11-28T22:58:31.905Z,99091.56
2022-11-28T23:01:22.005Z,99086.47
2022-11-28T23:04:10.737Z,99091.56
2022-11-28T23:06:57.957Z,99088.13
2022-11-28T23:09:45.304Z,99097.53
2022-11-28T23:12:32.847Z,99091.50
2022-11-28T23:15:20.026Z,99091.56
2022-11-28T23:18:07.399Z,99096.59
2022-11-28T23:20:57.412Z,99099.22
2022-11-28T23:23:46.064Z,99085.56
2022-11-28T23:26:35.329Z,99089.88
2022-11-28T23:29:23.518Z,99087.22
2022-11-28T23:32:10.495Z,99087.22
2022-11-28T23:35:00.083Z,99089.75
2022-11-28T23:37:49.701Z,99092.31
2022-11-28T23:40:37.195Z,99093.13
2022-11-28T23:43:24.480Z,99097.41
2022-11-28T23:46:13.595Z,99093.13
2022-11-28T23:49:01.023Z,99099.06
2022-11-28T23:51:48.176Z,99093.94
2022-11-28T23:54:36.880Z,99090.56
2022-11-28T23:57:24.295Z,99088.00
